createdAt,value
2019-05-09T00:02:39.262Z,12.90
2019-05-09T00:07:44.312Z,12.89
2019-05-09T00:12:49.358Z,12.85
2019-05-09T00:17:54.429Z,12.76
2019-05-09T00:22:59.443Z,12.71
2019-05-09T00:28:05.037Z,12.63
2019-05-09T00:33:10.148Z,12.64
2019-05-09T00:38:15.836Z,12.63
2019-05-09T00:43:20.925Z,12.65
2019-05-09T00:48:33.522Z,12.67
2019-05-09T00:53:38.150Z,12.68
2019-05-09T00:58:44.092Z,12.70
2019-05-09T01:03:50.198Z,12.76
2019-05-09T01:08:55.304Z,12.77
2019-05-09T01:14:00.309Z,12.81
2019-05-09T01:19:05.646Z,12.72
2019-05-09T01:24:10.664Z,12.72
2019-05-09T01:29:15.669Z,12.73
2019-05-09T01:34:24.293Z,12.73
2019-05-09T01:39:29.326Z,12.75
2019-05-09T01:44:34.368Z,12.71
2019-05-09T01:49:39.388Z,12.68
2019-05-09T01:54:46.008Z,12.67
2019-05-09T01:59:53.239Z,12.61
2019-05-09T02:04:58.364Z,12.59
2019-05-09T02:10:03.589Z,12.55
2019-05-09T02:15:34.226Z,12.54
2019-05-09T02:20:39.790Z,12.49
2019-05-09T02:25:45.121Z,12.44
2019-05-09T02:30:50.109Z,12.44
2019-05-09T02:35:58.255Z,12.40
2019-05-09T02:41:03.176Z,12.45
2019-05-09T02:46:33.307Z,12.45
2019-05-09T02:51:38.931Z,12.51
2019-05-09T02:56:44.414Z,12.54
2019-05-09T03:02:20.854Z,12.47
2019-05-09T03:07:48.266Z,12.48
2019-05-09T03:12:52.107Z,12.43
2019-05-09T03:17:59.971Z,12.41
2019-05-09T03:23:04.265Z,12.41
2019-05-09T03:28:18.411Z,12.34
2019-05-09T03:33:29.545Z,12.36
2019-05-09T03:38:37.611Z,12.38
2019-05-09T03:43:42.289Z,12.39
2019-05-09T03:48:50.715Z,12.34
2019-05-09T03:53:57.569Z,12.36
2019-05-09T03:59:02.598Z,12.31
2019-05-09T04:04:08.765Z,12.29
2019-05-09T04:09:14.039Z,12.33
2019-05-09T04:14:22.542Z,12.31
2019-05-09T04:19:27.766Z,12.33
2019-05-09T04:24:34.311Z,12.36
2019-05-09T04:29:39.415Z,12.39
2019-05-09T04:34:49.586Z,12.37
2019-05-09T04:39:59.470Z,12.38
2019-05-09T04:45:09.981Z,12.36
2019-05-09T04:50:15.294Z,12.34
2019-05-09T04:55:22.464Z,12.34
2019-05-09T05:00:37.661Z,12.38
2019-05-09T05:05:43.405Z,12.40
2019-05-09T05:10:48.595Z,12.42
2019-05-09T05:15:53.835Z,12.42
2019-05-09T05:20:58.948Z,12.43
2019-05-09T05:26:03.984Z,12.52
2019-05-09T05:31:09.363Z,12.50
2019-05-09T05:36:14.659Z,12.49
2019-05-09T05:41:19.726Z,12.48
2019-05-09T05:46:42.528Z,12.48
2019-05-09T05:51:50.588Z,12.57
2019-05-09T05:56:57.649Z,12.56
2019-05-09T06:02:02.332Z,12.66
2019-05-09T06:07:08.160Z,12.61
2019-05-09T06:12:13.415Z,12.62
2019-05-09T06:17:18.759Z,12.67
2019-05-09T06:22:33.388Z,12.66
2019-05-09T06:27:38.448Z,12.72
2019-05-09T06:32:43.622Z,12.68
2019-05-09T06:37:53.183Z,12.71
2019-05-09T06:42:59.964Z,12.73
2019-05-09T06:48:07.579Z,12.71
2019-05-09T06:53:14.351Z,12.74
2019-05-09T06:58:32.631Z,12.81
2019-05-09T07:03:39.613Z,12.93
2019-05-09T07:08:52.739Z,13.05
2019-05-09T07:13:59.359Z,13.14
2019-05-09T07:19:08.820Z,13.22
2019-05-09T07:24:18.983Z,13.22
2019-05-09T07:29:28.356Z,13.29
2019-05-09T07:34:44.726Z,13.35
2019-05-09T07:39:51.509Z,13.32
2019-05-09T07:44:59.122Z,13.40
2019-05-09T07:50:08.504Z,13.51
2019-05-09T07:55:17.878Z,13.56
2019-05-09T08:00:33.158Z,13.70
2019-05-09T08:05:39.945Z,13.91
2019-05-09T08:10:47.733Z,14.17
2019-05-09T08:15:54.555Z,14.35
2019-05-09T08:21:01.217Z,14.19
2019-05-09T08:26:08.786Z,14.10
2019-05-09T08:31:18.385Z,13.99
2019-05-09T08:36:25.067Z,13.97
2019-05-09T08:41:32.053Z,14.25
2019-05-09T08:46:41.632Z,14.33
2019-05-09T08:52:15.874Z,14.66
2019-05-09T08:57:10.797Z,14.74
2019-05-09T09:02:28.286Z,14.70
2019-05-09T09:07:37.718Z,14.98
2019-05-09T09:12:47.760Z,15.10
2019-05-09T09:17:53.043Z,15.55
2019-05-09T09:22:59.707Z,15.75
2019-05-09T09:28:04.877Z,15.71
2019-05-09T09:33:14.002Z,15.82
2019-05-09T09:38:20.701Z,15.64
2019-05-09T09:43:32.343Z,15.62
2019-05-09T09:48:39.440Z,15.65
2019-05-09T09:53:48.918Z,15.41
2019-05-09T09:59:08.174Z,15.68
2019-05-09T10:04:24.021Z,16.11
2019-05-09T10:09:27.748Z,16.39
2019-05-09T10:14:38.003Z,16.65
2019-05-09T10:19:52.666Z,16.95
2019-05-09T10:24:59.404Z,17.33
2019-05-09T10:30:06.218Z,17.02
2019-05-09T10:35:17.731Z,16.73
2019-05-09T10:40:30.182Z,16.86
2019-05-09T10:46:01.709Z,17.04
2019-05-09T10:51:10.492Z,16.59
2019-05-09T10:56:19.134Z,17.26
2019-05-09T11:01:24.727Z,18.09
2019-05-09T11:06:29.769Z,18.67
2019-05-09T11:11:34.854Z,19.23
2019-05-09T11:16:46.183Z,18.77
2019-05-09T11:21:47.877Z,17.96
2019-05-09T11:26:53.618Z,17.61
2019-05-09T11:31:59.417Z,17.43
2019-05-09T11:37:04.448Z,17.51
2019-05-09T11:42:09.502Z,18.47
2019-05-09T11:47:28.606Z,19.46
2019-05-09T11:52:21.318Z,19.92
2019-05-09T11:57:28.636Z,19.37
2019-05-09T12:02:33.489Z,19.70
2019-05-09T12:07:39.621Z,20.49
2019-05-09T12:12:44.692Z,20.84
2019-05-09T12:17:57.864Z,20.78
2019-05-09T12:22:58.431Z,19.41
2019-05-09T12:28:03.339Z,18.85
2019-05-09T12:33:08.815Z,19.28
2019-05-09T12:38:14.029Z,20.11
2019-05-09T12:43:19.142Z,20.95
2019-05-09T12:48:27.939Z,21.49
2019-05-09T12:53:32.593Z,21.86
2019-05-09T12:58:37.660Z,21.84
2019-05-09T13:03:42.794Z,21.38
2019-05-09T13:08:48.137Z,21.37
2019-05-09T13:13:53.750Z,20.70
2019-05-09T13:19:04.207Z,21.12
2019-05-09T13:24:10.701Z,21.56
2019-05-09T13:29:15.844Z,22.07
2019-05-09T13:34:21.300Z,22.09
2019-05-09T13:39:27.942Z,21.64
2019-05-09T13:44:33.154Z,20.80
2019-05-09T13:49:39.621Z,20.67
2019-05-09T13:54:44.747Z,21.43
2019-05-09T13:59:50.360Z,21.80
2019-05-09T14:04:58.094Z,21.91
2019-05-09T14:10:02.278Z,21.82
2019-05-09T14:15:08.490Z,21.13
2019-05-09T14:20:13.963Z,20.76
2019-05-09T14:25:19.722Z,21.03
2019-05-09T14:30:27.378Z,20.97
2019-05-09T14:35:33.556Z,20.57
2019-05-09T14:40:38.780Z,20.39
2019-05-09T14:45:43.881Z,20.14
2019-05-09T14:50:49.530Z,19.93
2019-05-09T14:55:55.127Z,19.93
2019-05-09T15:01:00.902Z,19.70
2019-05-09T15:06:10.422Z,19.62
2019-05-09T15:11:17.925Z,19.56
2019-05-09T15:16:22.666Z,19.52
2019-05-09T15:21:28.117Z,19.57
2019-05-09T15:26:33.331Z,19.61
2019-05-09T15:31:39.361Z,19.50
2019-05-09T15:36:44.474Z,19.26
2019-05-09T15:41:49.542Z,19.07
2019-05-09T15:46:59.951Z,19.05
2019-05-09T15:52:07.352Z,19.01
2019-05-09T15:57:11.846Z,18.94
2019-05-09T16:02:19.000Z,18.87
2019-05-09T16:07:24.075Z,18.97
2019-05-09T16:12:29.693Z,19.09
2019-05-09T16:17:34.777Z,18.98
2019-05-09T16:22:40.009Z,18.94
2019-05-09T16:27:45.317Z,18.86
2019-05-09T16:32:51.522Z,18.79
2019-05-09T16:38:05.276Z,18.76
2019-05-09T16:43:03.812Z,18.52
2019-05-09T16:48:11.441Z,18.20
2019-05-09T16:53:18.414Z,18.01
2019-05-09T16:58:22.941Z,17.91
2019-05-09T17:03:28.454Z,17.78
2019-05-09T17:08:38.792Z,17.72
2019-05-09T17:13:43.830Z,17.71
2019-05-09T17:18:48.913Z,17.70
2019-05-09T17:23:55.549Z,17.58
2019-05-09T17:29:05.005Z,17.56
2019-05-09T17:34:10.372Z,17.51
2019-05-09T17:39:15.383Z,17.45
2019-05-09T17:44:20.433Z,17.46
2019-05-09T17:49:27.881Z,17.39
2019-05-09T17:54:32.920Z,17.29
2019-05-09T17:59:39.215Z,17.27
2019-05-09T18:04:44.496Z,17.33
2019-05-09T18:09:58.019Z,17.18
2019-05-09T18:15:02.701Z,17.23
2019-05-09T18:20:09.768Z,17.12
2019-05-09T18:25:18.770Z,17.17
2019-05-09T18:30:24.177Z,17.23
2019-05-09T18:35:29.994Z,17.32
2019-05-09T18:40:35.124Z,17.23
2019-05-09T18:45:40.222Z,17.26
2019-05-09T18:50:45.551Z,17.25
2019-05-09T18:55:50.640Z,17.22
2019-05-09T19:00:55.786Z,17.06
2019-05-09T19:06:01.980Z,17.09
2019-05-09T19:11:07.091Z,17.07
2019-05-09T19:16:20.590Z,17.06
2019-05-09T19:21:32.669Z,16.96
2019-05-09T19:26:37.871Z,16.81
2019-05-09T19:31:43.023Z,16.75
2019-05-09T19:36:48.549Z,16.58
2019-05-09T19:41:53.649Z,16.52
2019-05-09T19:47:01.465Z,16.39
2019-05-09T19:52:05.437Z,16.22
2019-05-09T19:57:10.437Z,16.13
2019-05-09T20:02:15.741Z,15.98
2019-05-09T20:07:20.825Z,15.89
2019-05-09T20:12:51.257Z,15.82
2019-05-09T20:17:56.285Z,15.78
2019-05-09T20:23:01.642Z,15.66
2019-05-09T20:28:06.714Z,15.66
2019-05-09T20:33:12.142Z,15.59
2019-05-09T20:38:17.299Z,15.50
2019-05-09T20:43:22.557Z,15.48
2019-05-09T20:48:29.021Z,15.34
2019-05-09T20:53:34.249Z,15.31
2019-05-09T20:58:39.429Z,15.22
2019-05-09T21:03:58.889Z,15.34
2019-05-09T21:08:52.081Z,15.26
2019-05-09T21:13:57.329Z,15.22
2019-05-09T21:19:02.717Z,15.32
2019-05-09T21:24:07.943Z,15.24
2019-05-09T21:29:13.870Z,15.18
2019-05-09T21:34:19.499Z,15.07
2019-05-09T21:39:24.481Z,14.97
2019-05-09T21:44:29.570Z,14.87
2019-05-09T21:49:34.613Z,14.86
2019-05-09T21:54:39.641Z,14.68
2019-05-09T21:59:45.120Z,14.65
2019-05-09T22:04:50.321Z,14.61
2019-05-09T22:09:55.405Z,14.56
2019-05-09T22:15:03.704Z,14.44
2019-05-09T22:20:09.620Z,14.34
2019-05-09T22:25:16.163Z,14.38
2019-05-09T22:30:21.314Z,14.25
2019-05-09T22:35:26.320Z,14.14
2019-05-09T22:40:31.867Z,14.15
2019-05-09T22:45:36.884Z,14.12
2019-05-09T22:50:41.919Z,14.00
2019-05-09T22:55:46.939Z,13.92
2019-05-09T23:00:53.033Z,13.91
2019-05-09T23:05:58.088Z,13.84
2019-05-09T23:11:03.148Z,13.77
2019-05-09T23:16:08.194Z,13.80
2019-05-09T23:21:13.642Z,13.81
2019-05-09T23:26:21.152Z,13.81
2019-05-09T23:31:43.761Z,13.85
2019-05-09T23:36:48.749Z,13.84
2019-05-09T23:41:53.877Z,13.72
2019-05-09T23:46:58.942Z,13.61
2019-05-09T23:52:03.972Z,13.55
2019-05-09T23:57:27.467Z,13.55
